トロムソ の空港の天気 - METARとTAF

トロムソ空港 ( ENTC / TOS ) - ノルウェー トロムス県トロムソ
飛行場実況気象(Metar)
観測時間10/20 06:20 CEST (10/20 04:20 UTC)
風向・風速西南西 3m/s
視程10km以上
天気現象
全天の8割程度の雲 雲底高度 340m
気温-2℃
湿度86%
気圧1018hPa
METARENTC 200420Z 25006KT 9999 BKN011 M02/M04 Q1018 RMK WIND 2600FT 16009KT
過去の天気等 Google飛行場航空写真 Wunderground天気予報

過去48時間のMETAR

飛行場予報(TAF)
発表時間: -
20日9時 CEST ~ 20日11時 CEST に徐々に
風向・風速南南西 8m/s
20日4時 CEST ~ 20日9時 CEST に一時的に
全天の8割程度の雲 雲底高度 240m
20日18時 CEST ~ 21日2時 CEST に一時的に
視程2500m
天気現象雪雨
全天を覆う雲 鉛直視程 240m
TAF AMD ENTC 2002/2024 24005KT 9999 FEW012 SCT040
BECMG 2007/2009 20015KT
TEMPO 2002/2007 BKN008
TEMPO 2016/2024 2500 SNRA VV008